Sault Ste Marie Airport
CYAM : now visible

Airfield :











YOU CAN JOIN US ON...

 
LOGIN :

Register | Disclaimer

   EN    FR    IT 

 









Legend :    VFR   Marginal VFR   IFR   Intensive IFR   Very Intensive IFR
Visi :
Ceiling :
>= 8 km
>= 3000ft
5 to 8 km
1000 to 3000 ft
1500m to 5 km
500 to 1000 ft
800 to 1500m
200 to 500 ft
< 800m
< 200 ft
Symbols :   Thunderstorms  Fog  Heavy snow  Heavy precipitations  Wind > 20 kt






- Airport Elevation : 630 ft
- IATA code : YAM


CYAM - Sault Ste Marie

CURRENT METAR :
  • 232254Z 24009G15KT 25SM FEW026TCU BKN040 BKN071 BKN170 BKN250 07/05 A2995 RMK TCU1CU4ACC1AS1CI1 AS TR CI TR SLP152

EXPIRED METARs :
  • 232200Z 28010KT 20SM -SHRA FEW022TCU BKN049 BKN100 BKN170 07/03 A2995 RMK TCU2CU4AC1AS1 AS TR SLP153
  • 232144Z 27010G18KT 20SM -SHRA FEW022TCU BKN044 BKN100 BKN170 07/04 A2995 RMK TCU2CU4AC1AS1 AS TR SLP153
  • 232100Z 27007KT 25SM FEW026TCU BKN052 BKN100 BKN150 BKN200 08/04 A2994 RMK TCU1CU4AC1AS1CC1 CC TR SLP148
  • 232039Z 31003KT 270V360 20SM VCSH SCT027TCU BKN038 BKN100 BKN200 08/05 A2994 RMK TCU3CU2AC1CC1 CC TR VCSH SW-W SLP149
  • 232015Z 31008G19KT 20SM SHRA SCT027TCU BKN038 07/05 A2995 RMK TCU3CU3 SLP152
  • 232000Z 27008G16KT 15SM -SHRA FEW029TCU BKN061 BKN200 08/05 A2995 RMK TCU2CU4CC1 CC TR SLP150

TAF TAF CYAM
Valid from the 23 at 20:00 until the 24 at 08:00 UTC


231938Z 2320/2408 32010KT P6SM FEW009 BKN030
TEMPO 2320/2403 3SM -SHRA BR BKN009 OVC030
FM240300 27012KT 6SM -RA BR SCT006 OVC020
TEMPO 2403/2408 2SM -SHRA BR OVC006 RMK NXT FCST BY 240200Z
CZYZ FIR / North America



MET'MAP, your aeronautical weather chart ! - Copyright ORBIFLY December 2007 - Disclaimer

ORBIFLY MET'MAP TEAM :

Programming & Development : Alexandra Zaïnal
Concept & original design : Baudouin d'Aumeries
Assistance for programming : Marc-Olivier Méhu
Technical & hardware support : Manuel Goepfert

Contact : metmap@orbifly.com




SOURCES & CREDITS :

   NOAA       Earth
Advisory